Pilot Magazine UKGA

About You

Log In Register UKGA membership

Flight planning

Flight planning New flightplan NOTAM map LARS map & NOTAMs Danger area, mil. & TRA activations Weather map GPS route download Find waypoints Your waypoints New waypoint

Forums

Forums Currently discussing "Spatial Disorioentation"

Other items

Articles Events Links News Surveys Tips Other users Feedback UKGA membership About UKGA

METARs

UK

EGAA 152220Z 15017G29KT 9000 RA FEW011 SCT018 BKN035 07/06 Q1012 RERA
EGAC 152220Z AUTO 17019KT 5000 -RA BKN010/// OVC014/// 08/07 Q1014
EGAE 151720Z 19014G27KT 9999 SHRA FEW012 BKN017 08/05 Q1016
EGBB 152220Z 16009KT 5000 BR SCT005 00/M01 Q1027
EGBJ 151550Z 15004KT 9999 FEW018 02/M00 Q1031
EGCC 152220Z AUTO 16005KT 090V220 9999 SCT026 00/M01 Q1025
EGCK 152220Z AUTO 17021KT 9999 OVC018/// 06/02 Q1021
EGCN 152220Z 15008KT 6000 BKN004 M00/M00 Q1028
EGDM 152150Z AUTO 14006KT 7000 BR BKN015/// 00/00 Q1028
EGDR 152150Z AUTO 19014KT 9999 // BKN016/// BKN070/// 09/07 Q1025
EGDY 152150Z AUTO 13007KT 9999 BKN026/// 02/01 Q1028
EGEC 150920Z 13008KT 9999 BKN020 05/02 Q1027
EGEO 151220Z 12009KT 9999 SCT019 BKN030 04/02 Q1026
EGFF 152220Z AUTO 13011KT 9999 NCD 04/03 Q1026
EGGD 152220Z AUTO 17010G20KT 9999 BKN021 03/01 Q1026
EGGP 152220Z AUTO 16010KT 9999 R27/M0050 FEW009/// 01/M00 Q1024
EGGW 152220Z AUTO 17006KT 5000 BR BKN032 00/00 Q1029
EGHC 151620Z 18012KT 9999 FEW010 08/05 Q1027
EGHE 151620Z 19018KT 9999 FEW018 SCT025 10/06 Q1027
EGHH 151820Z 08002KT 7000 FEW015 M01/M01 Q1030
EGHI 151720Z 00000KT 9999 SCT018 01/00 Q1030 
EGHQ 152220Z AUTO 16018KT 9999 DZ NCD 08/06 Q1025
EGJA 151750Z 15005KT 110V170 9999 FEW025 04/M00 Q1030
EGJB 152150Z 17010KT 9999 FEW022 06/00 Q1029
EGJJ 152220Z AUTO 15009KT 9999 FEW021/// 05/02 Q1030
EGKA 151750Z 01004KT 9999 FEW046 01/00 Q1030
EGKB 152220Z 16009KT CAVOK 00/M01 Q1029 
EGKK 152220Z VRB01KT 9000 BKN043 M01/M01 Q1030
EGLC 152220Z AUTO 16005KT 9999 BKN040 03/M01 Q1030
EGLF 152220Z AUTO 15006KT 9000 NCD 01/00 Q1029
EGLL 152220Z AUTO 16004KT 8000 FEW031 BKN038 00/M01 Q1029
EGMC 152220Z 20004KT CAVOK 01/00 Q1030
EGMD 152220Z AUTO VRB01KT 9999 SCT035/// BKN042/// 01/M00 Q1031
EGNH 152050Z 16016KT 9000 FEW030 00/M01 Q1025
EGNJ 152220Z AUTO 17008KT 7000 OVC003/// 01/01 Q1028
EGNM 152150Z 14010KT 2000 BR SCT001 BKN004 M02/M03 Q1025 R14/610395
EGNO 151350Z 15007KT 2500 BR VV/// M00/M00 Q1029
EGNR 151920Z 15009KT 9000 BKN018 00/M01 Q1028
EGNS 152150Z 16022KT 9999 -RA FEW010 OVC015 06/04 Q1020
EGNT 152220Z 15005KT 110V180 CAVOK M02/M03 Q1023
EGNV 151750Z 19007KT 0400 R23/P1000 FZFG OVC001 M02/M03 Q1028
EGNX 152220Z 16009KT 9999 BKN008 00/M00 Q1027
EGOM 152150Z AUTO 16002KT 9999 BKN130/// M02/M03 Q1021
EGOP 152200Z AUTO 15018KT 9999 // SCT024/// BKN070/// 07/03 Q1025
EGOS 152150Z AUTO 15008KT 9999 BKN011/// SCT120/// 01/M01 Q1025
EGOV 152150Z AUTO 17026G36KT 9999 SCT016/// BKN025/// BKN060/// 06/03 Q1021
EGPA 152220Z AUTO 17024G34KT 9999 BKN011/// OVC017/// 04/01 Q1016
EGPB 152220Z AUTO 17020KT 9999 OVC016/// 06/03 Q1019
EGPC 152220Z AUTO 15021KT 9999 SCT013/// 04/01 Q1016
EGPD 152220Z AUTO 17016KT 9999 NCD 03/M00 Q1020 NOSIG
EGPE 152220Z AUTO 14008KT 100V200 9999 NCD 04/00 Q1015
EGPF 152220Z AUTO 10009KT 6000 -RA OVC014/// //////CB 03/01 Q1018
EGPH 152220Z 08006KT 9999 BKN022 01/M01 Q1019
EGPI 152150Z AUTO 15031G44KT 350V050 3400 RA SCT009/// BKN016/// 07/07 Q1011
EGPK 152220Z 14017KT 9999 -RA FEW012 SCT021 BKN031 03/01 Q1017
EGPL 152220Z AUTO 16040G54KT 2800 +RA BKN005/// OVC008/// 07/06 Q1005
EGPN 151550Z 18003KT 9999 FEW008 BKN020 03/02 Q1025
EGPO 152220Z AUTO 15025KT 5000 -RA BKN020/// BKN029/// OVC045/// 06/04 Q1008
EGPU 152150Z AUTO 16039G49KT 1000 RA SCT009/// BKN016/// 08/07 Q1009
EGQK 152150Z AUTO 05004KT 9999 OVC140/// 01/M01 Q1016
EGQL 152150Z 14007KT CAVOK 02/M01 Q1020 RMK BLU
EGQM 152150Z AUTO /////KT 9999 OVC170/// M00/M02 Q1023
EGQS 152150Z 19010KT CAVOK 03/M01 Q1017 RMK BLU
EGSC 151750Z VRB02KT 8000 FEW007 BKN040 01/01 Q1030
EGSH 152220Z AUTO 20003KT 9999 NCD M00/M02 Q1030
EGSS 152220Z AUTO 16005KT 3600 BR BKN036 M00/M00 Q1029
EGSY 151620Z 08007KT 7000 FEW007 02/00 Q1029
EGTC 151750Z 15004KT 3300 BR FEW007 00/00 Q1030
EGTE 152220Z 13009KT 9999 FEW020 BKN030 07/03 Q1027
EGTK 152050Z 16004KT 3500 BR NSC M02/M02 Q1029
EGUB 152150Z AUTO 16006KT 9999 // BKN031/// SCT200/// 01/00 Q1029
EGUL 152156Z AUTO 14004KT 9999 CLR M01/M01 A3039 RMK AO2 SLP295 T10071007 $
EGUN 152156Z AUTO 15005KT 9999 CLR M01/M01 A3039 RMK AO2 SLP295 T10081008 FZRANO $
EGUW 152150Z AUTO 21004KT 9999 SCT039/// 01/M03 Q1029
EGVA 152221Z AUTO 14004KT 9999 BKN018 00/00 A3034 RMK AO2 SLP283 FZRANO $
EGVN 152220Z 14003KT 3200 BR FEW014 BKN026 00/M01 Q1028 BECMG 4000 RMK YLO1 BECMG GRN
EGVO 152150Z AUTO 13009KT 5000 BR FEW035/// SCT210/// 00/M00 Q1029
EGVP 152150Z AUTO 10003KT 8000 BR BKN019/// SCT024/// 01/00 Q1028
EGWU 152150Z AUTO 17001KT 3200 // FEW024/// BKN030/// M01/M01 Q1030
EGXC 152150Z 18005KT 4000 BR FEW002 BKN220 M00/M00 Q1029 RMK GRN
EGXE 152150Z AUTO 16010KT 3000 BR OVC004/// M01/M01 Q1026
EGXP 152150Z AUTO 00000KT 4900 // BKN002/// OVC200/// M00/M00 Q1027
EGXS 152150Z AUTO 17006KT 1700 // BKN001/// BKN040/// 00/M00 Q1028
EGXT 152150Z AUTO 00000KT 2200 BKN001/// BKN210/// M00/M00 Q1028
EGXU 152150Z AUTO 15010KT 3300 BR OVC004/// M01/M01 Q1027
EGXV 152150Z AUTO 18005KT 3200 BR FEW003/// M01/M01 Q1027
EGXW 152150Z AUTO 17010KT 0400 FG VV/// M00/M01 Q1028
EGXZ 152150Z AUTO 00000KT 3200 BR OVC003/// M01/M01 Q1026
EGYD 152150Z AUTO 18008KT 0400 // OVC001/// M00/M00 Q1028
EGYM 152150Z AUTO 13005KT 8000 NCD M00/M00 Q1029
EGYP 152150Z 13013KT 9999 BKN026 08/01 Q1015

About You

Log In Register UKGA membership

Airfields

Interactive airfield map Search by name Search by postcode Search by location Fuel prices Pilot reviews Latest
(No favourites selected)

Flight planning

Flight planning New flightplan NOTAM map LARS map & NOTAMs Danger area, mil. & TRA activations Weather map GPS route download Find waypoints Your waypoints New waypoint

Forums

Forums Currently discussing "Spatial Disorioentation"

Other items

Articles Events Links News Surveys Tips Other users Feedback UKGA membership About UKGA